Time;durP1;ratioP1;P1;durP2;ratioP2;P2;SDS_P1;SDS_P2;PMS_P1;PMS_P2;Temp;Humidity;BMP_temperature;BMP_pressure;BME280_temperature;BME280_humidity;BME280_pressure;Samples;Min_cycle;Max_cycle;Signal;HPM_P1;HPM_P2
2023/12/08 00:01:34;;;;;;;17.88;8.68;;;;;;;;;;5061662;28;20048;-60
2023/12/08 00:04:00;;;;;;;17.35;8.82;;;;;;;;;;5058546;28;20487;-60
2023/12/08 00:06:26;;;;;;;21.08;8.60;;;;;;;;;;5058098;28;20040;-60
2023/12/08 00:08:52;;;;;;;16.73;7.82;;;;;;;;;;5055686;28;20040;-60
2023/12/08 00:11:18;;;;;;;17.45;8.80;;;;;;;;;;5052715;28;20039;-60
2023/12/08 00:13:44;;;;;;;20.08;9.05;;;;;;;;;;5046512;28;20056;-60
2023/12/08 00:16:10;;;;;;;19.27;9.05;;;;;;;;;;5056876;28;20162;-60
2023/12/08 00:18:37;;;;;;;21.10;9.48;;;;;;;;;;5060787;28;20505;-60
2023/12/08 00:21:03;;;;;;;19.27;9.70;;;;;;;;;;5056843;28;20043;-60
2023/12/08 00:23:29;;;;;;;19.13;8.85;;;;;;;;;;5057687;28;20440;-60
2023/12/08 00:25:55;;;;;;;17.48;8.48;;;;;;;;;;5052356;28;20616;-60
2023/12/08 00:28:21;;;;;;;19.75;8.77;;;;;;;;;;5053189;28;20060;-60
2023/12/08 00:30:47;;;;;;;19.15;9.30;;;;;;;;;;5051864;28;20414;-60
2023/12/08 00:33:13;;;;;;;18.02;9.15;;;;;;;;;;5048035;28;20048;-59
2023/12/08 00:35:39;;;;;;;19.35;8.70;;;;;;;;;;5049112;28;20527;-60
2023/12/08 00:38:05;;;;;;;19.00;9.82;;;;;;;;;;5045881;28;20127;-60
2023/12/08 00:40:31;;;;;;;19.70;10.02;;;;;;;;;;5045022;28;20082;-60
2023/12/08 00:56:28;;;;;;;20.83;9.70;;;;;;;;;;5044081;28;20553;-60
2023/12/08 00:58:54;;;;;;;19.23;9.55;;;;;;;;;;5048304;28;20132;-60
2023/12/08 01:01:20;;;;;;;22.25;10.13;;;;;;;;;;5048555;28;20143;-60
2023/12/08 01:03:46;;;;;;;20.58;9.98;;;;;;;;;;5058167;28;20059;-60
2023/12/08 01:06:12;;;;;;;23.95;10.32;;;;;;;;;;5058301;28;20045;-60
2023/12/08 01:08:38;;;;;;;22.40;10.88;;;;;;;;;;5062540;28;20089;-60
2023/12/08 01:11:06;;;;;;;23.27;10.93;;;;;;;;;;5061843;28;20123;-60
2023/12/08 01:13:32;;;;;;;22.02;10.00;;;;;;;;;;5049558;28;20059;-60
2023/12/08 01:15:58;;;;;;;20.33;10.32;;;;;;;;;;5062426;28;20041;-60
2023/12/08 01:18:24;;;;;;;21.35;10.10;;;;;;;;;;5060282;28;20105;-60
2023/12/08 01:20:51;;;;;;;20.67;10.23;;;;;;;;;;5062069;28;20044;-60
2023/12/08 01:23:17;;;;;;;21.77;10.83;;;;;;;;;;5063233;28;20405;-60
2023/12/08 01:25:43;;;;;;;25.67;11.85;;;;;;;;;;5065507;28;20509;-60
2023/12/08 01:28:09;;;;;;;22.52;11.93;;;;;;;;;;5066413;28;20041;-60
2023/12/08 01:30:35;;;;;;;23.27;10.75;;;;;;;;;;5064188;28;20059;-60
2023/12/08 01:33:03;;;;;;;29.38;11.95;;;;;;;;;;5065908;28;20040;-60
2023/12/08 01:35:29;;;;;;;20.52;10.80;;;;;;;;;;5064643;28;20045;-60
2023/12/08 01:37:55;;;;;;;24.58;10.93;;;;;;;;;;5065845;28;20053;-60
2023/12/08 01:40:21;;;;;;;23.05;10.50;;;;;;;;;;5065235;28;20444;-60
2023/12/08 01:42:47;;;;;;;22.52;10.93;;;;;;;;;;5065255;28;20080;-60
2023/12/08 01:45:13;;;;;;;22.80;10.70;;;;;;;;;;5066173;28;20056;-60
2023/12/08 01:47:41;;;;;;;23.08;10.88;;;;;;;;;;5066028;28;20043;-60
2023/12/08 01:50:07;;;;;;;23.23;11.25;;;;;;;;;;5065713;28;20127;-60
2023/12/08 01:52:33;;;;;;;20.50;10.40;;;;;;;;;;5065865;28;20040;-60
2023/12/08 01:55:00;;;;;;;24.17;10.80;;;;;;;;;;5064907;28;20739;-60
2023/12/08 01:57:26;;;;;;;24.50;10.73;;;;;;;;;;5064548;28;20483;-60
2023/12/08 01:59:52;;;;;;;21.05;10.77;;;;;;;;;;5065960;28;20124;-60
2023/12/08 02:02:20;;;;;;;25.55;10.98;;;;;;;;;;5065542;28;20040;-60
2023/12/08 02:04:48;;;;;;;22.52;10.60;;;;;;;;;;5065660;28;20048;-60
2023/12/08 02:07:14;;;;;;;22.70;11.45;;;;;;;;;;5065730;28;20040;-60
2023/12/08 02:09:41;;;;;;;25.20;11.50;;;;;;;;;;5134870;22;20052;-60
2023/12/08 02:12:07;;;;;;;22.73;10.77;;;;;;;;;;5043439;28;20501;-60
2023/12/08 02:14:33;;;;;;;22.02;11.07;;;;;;;;;;5044672;28;20128;-60
2023/12/08 02:17:05;;;;;;;20.27;11.25;;;;;;;;;;5045366;28;20132;-60
2023/12/08 02:19:31;;;;;;;28.73;11.95;;;;;;;;;;5044244;28;20132;-60
2023/12/08 02:21:57;;;;;;;21.23;11.07;;;;;;;;;;5043407;28;20094;-60
2023/12/08 02:24:23;;;;;;;24.92;11.02;;;;;;;;;;5042832;28;20521;-60
2023/12/08 02:26:49;;;;;;;22.45;10.90;;;;;;;;;;5045377;28;20041;-60
2023/12/08 02:29:16;;;;;;;22.70;10.60;;;;;;;;;;5045273;28;20049;-60
2023/12/08 02:31:46;;;;;;;23.30;11.48;;;;;;;;;;5045774;28;20037;-60
2023/12/08 02:34:16;;;;;;;22.58;10.57;;;;;;;;;;5044285;28;20049;-59
2023/12/08 02:36:43;;;;;;;25.25;11.75;;;;;;;;;;5045087;28;20127;-60
2023/12/08 02:39:10;;;;;;;23.38;11.35;;;;;;;;;;5043756;28;20041;-60
2023/12/08 02:41:36;;;;;;;24.65;11.35;;;;;;;;;;5045482;28;20084;-60
2023/12/08 02:44:02;;;;;;;21.17;10.43;;;;;;;;;;5044667;28;20033;-60
2023/12/08 02:46:28;;;;;;;22.67;10.65;;;;;;;;;;5044389;28;20056;-60
2023/12/08 02:48:54;;;;;;;23.77;11.65;;;;;;;;;;5045030;28;20573;-60
2023/12/08 02:51:20;;;;;;;22.65;10.98;;;;;;;;;;5044826;28;20160;-60
2023/12/08 02:53:46;;;;;;;22.65;10.05;;;;;;;;;;5045263;28;20609;-60
2023/12/08 02:56:12;;;;;;;20.08;9.98;;;;;;;;;;5043785;28;20124;-60
2023/12/08 02:58:38;;;;;;;23.92;11.02;;;;;;;;;;5043774;28;20156;-60
2023/12/08 03:01:04;;;;;;;21.63;10.45;;;;;;;;;;5043938;28;20052;-60
2023/12/08 03:03:30;;;;;;;25.85;10.80;;;;;;;;;;5044431;28;20135;-60
2023/12/08 03:05:56;;;;;;;23.58;11.13;;;;;;;;;;5045045;28;20127;-59
2023/12/08 03:08:22;;;;;;;26.55;11.82;;;;;;;;;;5026622;28;20419;-60
2023/12/08 03:10:48;;;;;;;25.95;11.52;;;;;;;;;;5044105;28;20091;-60
2023/12/08 03:13:14;;;;;;;23.27;10.50;;;;;;;;;;5045102;28;20044;-60
2023/12/08 03:15:40;;;;;;;21.95;11.05;;;;;;;;;;5044201;28;20045;-60
2023/12/08 03:18:06;;;;;;;27.23;12.27;;;;;;;;;;5043869;28;20041;-60
2023/12/08 03:20:32;;;;;;;25.58;11.38;;;;;;;;;;5043011;28;20509;-60
2023/12/08 03:22:59;;;;;;;22.88;11.38;;;;;;;;;;5044425;28;20041;-60
2023/12/08 03:25:25;;;;;;;25.30;11.38;;;;;;;;;;5043747;28;20064;-60
2023/12/08 03:27:51;;;;;;;22.60;11.10;;;;;;;;;;5042803;28;20036;-60
2023/12/08 03:30:17;;;;;;;24.67;10.70;;;;;;;;;;5044398;28;20796;-60
2023/12/08 03:32:43;;;;;;;23.38;10.52;;;;;;;;;;5043587;28;20537;-60
2023/12/08 03:35:09;;;;;;;25.10;12.23;;;;;;;;;;5043450;28;20056;-60
2023/12/08 03:37:35;;;;;;;21.10;10.52;;;;;;;;;;5043994;28;20041;-60
2023/12/08 03:40:02;;;;;;;21.30;10.18;;;;;;;;;;5043220;28;20053;-61
2023/12/08 03:42:28;;;;;;;24.42;11.88;;;;;;;;;;5044206;28;20112;-61
2023/12/08 03:44:54;;;;;;;20.85;10.48;;;;;;;;;;5043896;28;20053;-60
2023/12/08 03:47:20;;;;;;;22.75;11.23;;;;;;;;;;5042526;28;20049;-60
2023/12/08 03:49:46;;;;;;;20.42;10.38;;;;;;;;;;5043664;28;20124;-60
2023/12/08 03:52:12;;;;;;;22.30;11.13;;;;;;;;;;5043562;28;20698;-60
2023/12/08 03:54:37;;;;;;;23.73;11.23;;;;;;;;;;5043105;28;20106;-60
2023/12/08 03:57:04;;;;;;;24.50;11.20;;;;;;;;;;5043805;28;20554;-60
2023/12/08 03:59:29;;;;;;;24.45;11.23;;;;;;;;;;5043384;28;20039;-60
2023/12/08 04:01:55;;;;;;;24.15;11.10;;;;;;;;;;5043920;28;20136;-60
2023/12/08 04:04:21;;;;;;;20.65;10.77;;;;;;;;;;5043090;28;20033;-60
2023/12/08 04:06:47;;;;;;;25.10;12.07;;;;;;;;;;5043458;28;20091;-60
2023/12/08 04:09:14;;;;;;;21.52;10.98;;;;;;;;;;5042908;28;20048;-60
2023/12/08 04:11:40;;;;;;;24.65;11.23;;;;;;;;;;5043142;28;20139;-60
2023/12/08 04:14:05;;;;;;;25.75;11.60;;;;;;;;;;5043691;28;20135;-60
2023/12/08 04:16:31;;;;;;;22.67;11.40;;;;;;;;;;5043155;28;20132;-60
2023/12/08 04:18:57;;;;;;;25.17;11.70;;;;;;;;;;5042847;28;20041;-61
2023/12/08 04:21:23;;;;;;;25.05;12.05;;;;;;;;;;5041691;28;20063;-60
2023/12/08 04:23:49;;;;;;;24.92;12.57;;;;;;;;;;5043574;28;20033;-61
2023/12/08 04:26:20;;;;;;;25.00;12.50;;;;;;;;;;5042822;28;20051;-60
2023/12/08 04:28:46;;;;;;;22.15;10.20;;;;;;;;;;5041414;28;20128;-60
2023/12/08 04:31:12;;;;;;;25.40;11.82;;;;;;;;;;5043175;28;20044;-61
2023/12/08 04:33:38;;;;;;;24.08;11.52;;;;;;;;;;5042160;28;20574;-60
2023/12/08 04:36:04;;;;;;;25.77;11.90;;;;;;;;;;5042962;28;20033;-60
2023/12/08 04:38:30;;;;;;;26.85;12.68;;;;;;;;;;5042938;28;20041;-61
2023/12/08 04:40:56;;;;;;;29.42;12.43;;;;;;;;;;5041990;28;20135;-61
2023/12/08 04:43:22;;;;;;;24.85;11.82;;;;;;;;;;5043390;28;20095;-61
2023/12/08 04:45:48;;;;;;;28.13;13.15;;;;;;;;;;5042952;28;20125;-61
2023/12/08 04:48:14;;;;;;;27.00;12.70;;;;;;;;;;5042296;28;20320;-60
2023/12/08 04:50:40;;;;;;;28.27;12.90;;;;;;;;;;5042563;28;20049;-60
2023/12/08 04:53:06;;;;;;;30.05;12.27;;;;;;;;;;5042680;28;20033;-60
2023/12/08 04:55:32;;;;;;;27.00;12.45;;;;;;;;;;5042057;28;20045;-60
2023/12/08 04:57:58;;;;;;;27.60;13.90;;;;;;;;;;5042746;28;20402;-60
2023/12/08 05:00:25;;;;;;;26.63;11.57;;;;;;;;;;5042615;28;20084;-60
2023/12/08 05:02:51;;;;;;;27.85;13.38;;;;;;;;;;5042618;28;20063;-60
2023/12/08 05:05:17;;;;;;;27.52;12.07;;;;;;;;;;5041985;28;20057;-60
2023/12/08 05:07:44;;;;;;;27.60;13.68;;;;;;;;;;5042447;28;20036;-60
2023/12/08 05:10:10;;;;;;;24.55;11.00;;;;;;;;;;5041596;28;20455;-60
2023/12/08 05:12:36;;;;;;;29.55;12.60;;;;;;;;;;5041568;28;20037;-62
2023/12/08 05:15:02;;;;;;;29.58;13.48;;;;;;;;;;5041919;28;20037;-60
2023/12/08 05:17:28;;;;;;;25.55;11.15;;;;;;;;;;5040533;28;20120;-60
2023/12/08 05:19:54;;;;;;;27.52;11.70;;;;;;;;;;5041385;28;20037;-61
2023/12/08 05:22:20;;;;;;;29.90;12.55;;;;;;;;;;5040351;28;20115;-61
2023/12/08 05:24:46;;;;;;;27.85;12.32;;;;;;;;;;5039405;28;20041;-61
2023/12/08 05:27:12;;;;;;;28.40;12.07;;;;;;;;;;5041834;28;20691;-62
2023/12/08 05:29:38;;;;;;;27.30;12.80;;;;;;;;;;5037109;28;20110;-61
2023/12/08 05:32:04;;;;;;;23.75;11.00;;;;;;;;;;5039958;28;20040;-60
2023/12/08 05:34:30;;;;;;;29.95;11.88;;;;;;;;;;5039717;28;20445;-61
2023/12/08 05:36:56;;;;;;;25.30;11.73;;;;;;;;;;5039867;28;20530;-61
2023/12/08 05:39:22;;;;;;;26.42;11.95;;;;;;;;;;5039539;28;20045;-61
2023/12/08 05:41:48;;;;;;;24.63;12.50;;;;;;;;;;5040805;28;20102;-62
2023/12/08 05:44:16;;;;;;;26.10;12.63;;;;;;;;;;5041442;28;20546;-61
2023/12/08 05:46:42;;;;;;;34.25;12.57;;;;;;;;;;5042276;28;20048;-62
2023/12/08 05:49:08;;;;;;;28.27;12.65;;;;;;;;;;5040765;28;20086;-60
2023/12/08 05:51:34;;;;;;;26.10;12.02;;;;;;;;;;5040338;28;20463;-59
2023/12/08 05:54:00;;;;;;;29.02;12.07;;;;;;;;;;5038924;28;20503;-60
2023/12/08 05:56:26;;;;;;;28.13;11.85;;;;;;;;;;5042007;28;20112;-60
2023/12/08 05:58:52;;;;;;;25.02;11.68;;;;;;;;;;5041430;28;20049;-60
2023/12/08 06:01:19;;;;;;;26.50;11.88;;;;;;;;;;5041389;28;20536;-59
2023/12/08 06:03:45;;;;;;;22.67;10.50;;;;;;;;;;5041007;28;20040;-58
2023/12/08 06:06:11;;;;;;;26.98;12.55;;;;;;;;;;5021754;28;20767;-59
2023/12/08 06:08:37;;;;;;;22.92;10.73;;;;;;;;;;5038608;28;20127;-59
2023/12/08 06:11:03;;;;;;;25.17;12.07;;;;;;;;;;5043579;28;20060;-59
2023/12/08 06:13:29;;;;;;;27.48;12.35;;;;;;;;;;5044268;28;20091;-60
2023/12/08 06:15:55;;;;;;;26.15;12.32;;;;;;;;;;5044237;28;20045;-58
2023/12/08 06:18:22;;;;;;;166.65;63.92;;;;;;;;;;5041713;28;20679;-59
2023/12/08 06:20:48;;;;;;;146.35;57.17;;;;;;;;;;5045031;28;20037;-59
2023/12/08 06:23:14;;;;;;;25.10;11.40;;;;;;;;;;5045505;28;20101;-58
2023/12/08 06:25:40;;;;;;;27.90;12.30;;;;;;;;;;5044493;28;20438;-59
2023/12/08 06:28:06;;;;;;;29.58;12.07;;;;;;;;;;5045572;28;20041;-58
2023/12/08 06:30:32;;;;;;;31.88;16.02;;;;;;;;;;5044804;28;20756;-59
2023/12/08 06:32:58;;;;;;;44.17;27.05;;;;;;;;;;5042032;28;20044;-58
2023/12/08 06:35:24;;;;;;;43.63;22.92;;;;;;;;;;5045294;28;20048;-58
2023/12/08 06:37:50;;;;;;;26.33;11.82;;;;;;;;;;5045210;28;20171;-59
2023/12/08 06:40:16;;;;;;;26.98;12.60;;;;;;;;;;5043201;28;20053;-58
2023/12/08 06:42:42;;;;;;;29.00;14.30;;;;;;;;;;5044158;28;20033;-58
2023/12/08 06:45:09;;;;;;;64.45;31.80;;;;;;;;;;5044164;28;20186;-58
2023/12/08 06:47:35;;;;;;;41.60;19.27;;;;;;;;;;5044446;28;20123;-58
2023/12/08 06:50:01;;;;;;;152.43;81.00;;;;;;;;;;5043399;28;20431;-58
2023/12/08 06:52:27;;;;;;;34.65;14.90;;;;;;;;;;5043932;28;20111;-59
2023/12/08 06:54:53;;;;;;;31.02;14.75;;;;;;;;;;5043127;28;20753;-59
2023/12/08 06:57:19;;;;;;;53.03;31.20;;;;;;;;;;5044267;28;20060;-59
2023/12/08 06:59:45;;;;;;;30.05;11.75;;;;;;;;;;5041824;28;20438;-59
2023/12/08 07:02:11;;;;;;;27.02;14.23;;;;;;;;;;5042733;28;20052;-59
2023/12/08 07:04:37;;;;;;;49.33;31.48;;;;;;;;;;5032418;28;20138;-61
2023/12/08 07:07:03;;;;;;;28.15;13.88;;;;;;;;;;5035954;28;20037;-60
2023/12/08 07:09:29;;;;;;;29.20;13.43;;;;;;;;;;5037686;28;20049;-61
2023/12/08 07:11:56;;;;;;;42.15;21.40;;;;;;;;;;5041753;28;20060;-61
2023/12/08 07:14:22;;;;;;;37.47;18.20;;;;;;;;;;5041259;28;20052;-60
2023/12/08 07:16:48;;;;;;;40.17;18.02;;;;;;;;;;5040704;28;20129;-61
2023/12/08 07:19:14;;;;;;;28.98;13.45;;;;;;;;;;5041960;28;20137;-60
2023/12/08 07:21:43;;;;;;;27.77;12.40;;;;;;;;;;5039209;28;20068;-61
2023/12/08 07:24:10;;;;;;;24.98;11.80;;;;;;;;;;5040967;28;20037;-60
2023/12/08 07:26:36;;;;;;;28.90;14.10;;;;;;;;;;5040480;28;20552;-60
2023/12/08 07:29:03;;;;;;;26.77;12.27;;;;;;;;;;5040221;28;20570;-61
2023/12/08 07:31:29;;;;;;;39.28;18.92;;;;;;;;;;5041282;28;20650;-61
2023/12/08 07:33:56;;;;;;;24.20;11.98;;;;;;;;;;5040886;28;20045;-60
2023/12/08 07:36:22;;;;;;;30.50;11.50;;;;;;;;;;5040873;28;20136;-59
2023/12/08 07:38:48;;;;;;;22.65;10.95;;;;;;;;;;5040469;28;20132;-59
2023/12/08 07:41:14;;;;;;;27.05;11.70;;;;;;;;;;5039626;28;20131;-59
2023/12/08 07:43:40;;;;;;;24.27;11.93;;;;;;;;;;5040320;28;20677;-59
2023/12/08 07:46:07;;;;;;;33.70;17.98;;;;;;;;;;5041254;28;20074;-59
2023/12/08 07:48:33;;;;;;;36.83;20.73;;;;;;;;;;5041483;28;20518;-59
2023/12/08 07:50:59;;;;;;;26.35;12.65;;;;;;;;;;5038953;28;20056;-59
2023/12/08 07:53:25;;;;;;;29.42;13.05;;;;;;;;;;5040403;28;20079;-59
2023/12/08 07:55:51;;;;;;;27.65;12.32;;;;;;;;;;5040834;28;20147;-59
2023/12/08 07:58:17;;;;;;;28.75;11.80;;;;;;;;;;5040585;28;20037;-59
2023/12/08 08:00:43;;;;;;;26.35;13.48;;;;;;;;;;5039674;28;20049;-59
2023/12/08 08:03:09;;;;;;;22.42;11.63;;;;;;;;;;5040245;28;20124;-60
2023/12/08 08:05:35;;;;;;;26.90;13.00;;;;;;;;;;5040099;28;20124;-59
2023/12/08 08:08:02;;;;;;;25.00;12.48;;;;;;;;;;5041096;28;20445;-59
2023/12/08 08:10:28;;;;;;;27.70;13.15;;;;;;;;;;5039409;28;20091;-59
2023/12/08 08:12:55;;;;;;;27.88;13.63;;;;;;;;;;5040543;28;20654;-59
2023/12/08 08:15:21;;;;;;;27.75;12.88;;;;;;;;;;5040531;28;20487;-59
2023/12/08 08:17:47;;;;;;;25.52;11.65;;;;;;;;;;5038580;28;20052;-60
2023/12/08 08:20:12;;;;;;;25.25;11.82;;;;;;;;;;5039767;28;20077;-60
2023/12/08 08:22:38;;;;;;;26.92;12.73;;;;;;;;;;5033775;28;20047;-60
2023/12/08 08:25:05;;;;;;;32.50;17.83;;;;;;;;;;5039477;28;20423;-60
2023/12/08 08:27:32;;;;;;;30.45;17.60;;;;;;;;;;5039186;28;20044;-59
2023/12/08 08:29:58;;;;;;;36.85;17.60;;;;;;;;;;5038567;28;20106;-60
2023/12/08 08:32:24;;;;;;;39.35;20.65;;;;;;;;;;5039898;28;20045;-60
2023/12/08 08:34:52;;;;;;;27.85;13.48;;;;;;;;;;5040065;28;20106;-60
2023/12/08 08:37:22;;;;;;;29.38;13.32;;;;;;;;;;5039266;28;20103;-60
2023/12/08 08:39:48;;;;;;;26.58;12.43;;;;;;;;;;5037666;28;20933;-60
2023/12/08 08:42:14;;;;;;;22.98;11.10;;;;;;;;;;5039724;28;20049;-60
2023/12/08 08:44:40;;;;;;;28.77;12.35;;;;;;;;;;5039566;28;20049;-60
2023/12/08 08:47:06;;;;;;;25.77;11.93;;;;;;;;;;5039940;28;20040;-60
2023/12/08 08:49:33;;;;;;;28.55;12.02;;;;;;;;;;5038606;28;20041;-60
2023/12/08 08:51:59;;;;;;;23.33;11.68;;;;;;;;;;5034259;28;20056;-60
2023/12/08 08:54:25;;;;;;;25.25;12.23;;;;;;;;;;5039189;28;20051;-60
2023/12/08 08:56:52;;;;;;;26.75;13.05;;;;;;;;;;5039988;28;20159;-60
2023/12/08 08:59:18;;;;;;;29.92;12.70;;;;;;;;;;5039274;28;20045;-60
2023/12/08 09:01:44;;;;;;;24.65;11.73;;;;;;;;;;5040045;28;20060;-59
2023/12/08 09:04:10;;;;;;;31.05;15.10;;;;;;;;;;5039466;28;20511;-60
2023/12/08 09:06:36;;;;;;;26.70;12.57;;;;;;;;;;5039780;28;20049;-59
2023/12/08 09:09:04;;;;;;;29.60;12.77;;;;;;;;;;5039050;28;20056;-60
2023/12/08 09:11:30;;;;;;;28.23;12.55;;;;;;;;;;5039911;28;20057;-59
2023/12/08 09:13:56;;;;;;;26.55;11.32;;;;;;;;;;5039460;28;20478;-59
2023/12/08 09:16:22;;;;;;;24.33;11.45;;;;;;;;;;5038635;28;20800;-59
2023/12/08 09:18:48;;;;;;;26.98;12.55;;;;;;;;;;5037998;28;20731;-59
2023/12/08 09:21:14;;;;;;;25.52;13.35;;;;;;;;;;5039958;28;20048;-59
2023/12/08 09:23:41;;;;;;;28.42;13.02;;;;;;;;;;5039200;28;20041;-59
2023/12/08 09:26:07;;;;;;;25.05;12.00;;;;;;;;;;5040010;28;20047;-59
2023/12/08 09:28:33;;;;;;;26.60;12.23;;;;;;;;;;5038771;28;20049;-59
2023/12/08 09:31:00;;;;;;;28.63;14.05;;;;;;;;;;5039330;28;20037;-59
2023/12/08 09:33:26;;;;;;;37.72;19.98;;;;;;;;;;5039507;28;20072;-59
2023/12/08 09:35:52;;;;;;;27.05;13.10;;;;;;;;;;5037072;28;20088;-60
2023/12/08 09:38:18;;;;;;;52.30;31.23;;;;;;;;;;5038317;28;20629;-59
2023/12/08 09:40:44;;;;;;;32.97;15.30;;;;;;;;;;5039401;28;20414;-60
2023/12/08 09:43:11;;;;;;;22.85;11.55;;;;;;;;;;5039874;28;20053;-60
2023/12/08 09:45:38;;;;;;;28.05;12.98;;;;;;;;;;5043212;28;20053;-60
2023/12/08 09:48:04;;;;;;;34.45;16.67;;;;;;;;;;5043143;28;20033;-59
2023/12/08 09:50:31;;;;;;;28.45;13.82;;;;;;;;;;5043112;28;20472;-59
2023/12/08 09:52:57;;;;;;;30.10;13.57;;;;;;;;;;5042948;28;20383;-59
2023/12/08 09:55:23;;;;;;;26.55;13.27;;;;;;;;;;5043272;28;20130;-59
2023/12/08 09:57:52;;;;;;;28.42;12.10;;;;;;;;;;5043172;28;20091;-59
2023/12/08 10:00:20;;;;;;;26.42;12.75;;;;;;;;;;5043272;28;20086;-59
2023/12/08 10:02:46;;;;;;;30.67;12.93;;;;;;;;;;5042828;28;20110;-59
2023/12/08 10:05:12;;;;;;;25.88;12.35;;;;;;;;;;5042528;28;20040;-60
2023/12/08 10:07:40;;;;;;;23.38;11.32;;;;;;;;;;5043057;28;20052;-60
2023/12/08 10:10:08;;;;;;;29.42;12.88;;;;;;;;;;5042882;28;20060;-60
2023/12/08 10:12:34;;;;;;;29.45;12.13;;;;;;;;;;5043209;28;20460;-59
2023/12/08 10:15:01;;;;;;;23.98;11.88;;;;;;;;;;5042030;28;20053;-60
2023/12/08 10:17:27;;;;;;;23.48;12.18;;;;;;;;;;5057413;28;20103;-60
2023/12/08 10:20:12;;;;;;;25.13;12.15;;;;;;;;;;5041801;28;20132;-60
2023/12/08 10:22:45;;;;;;;27.60;13.38;;;;;;;;;;5042537;28;20063;-60
2023/12/08 10:25:11;;;;;;;32.60;15.05;;;;;;;;;;5040238;28;20057;-60
2023/12/08 10:27:37;;;;;;;27.08;12.55;;;;;;;;;;5042330;28;20064;-60
2023/12/08 10:30:03;;;;;;;29.33;14.35;;;;;;;;;;5042365;28;20055;-60
2023/12/08 10:32:29;;;;;;;40.65;13.88;;;;;;;;;;5042739;28;20053;-60
2023/12/08 10:34:56;;;;;;;30.23;14.68;;;;;;;;;;5042541;28;20067;-60
2023/12/08 10:37:23;;;;;;;27.48;12.98;;;;;;;;;;5042211;28;20057;-60
2023/12/08 10:39:49;;;;;;;28.58;13.73;;;;;;;;;;5040801;28;20053;-60
2023/12/08 10:42:15;;;;;;;34.95;15.20;;;;;;;;;;5041958;28;20494;-60
2023/12/08 10:44:45;;;;;;;32.35;13.77;;;;;;;;;;5041466;28;20048;-60
2023/12/08 10:47:12;;;;;;;32.55;14.23;;;;;;;;;;5042895;28;20128;-61
2023/12/08 10:49:39;;;;;;;31.38;13.88;;;;;;;;;;5040803;28;20106;-61
2023/12/08 10:52:06;;;;;;;30.15;13.48;;;;;;;;;;5041690;28;20560;-61
2023/12/08 10:54:32;;;;;;;36.47;14.38;;;;;;;;;;5041703;28;20048;-60
2023/12/08 10:56:58;;;;;;;32.35;14.38;;;;;;;;;;5040401;28;20055;-61
2023/12/08 10:59:25;;;;;;;35.38;14.00;;;;;;;;;;5040530;28;20156;-60
2023/12/08 11:01:53;;;;;;;37.00;16.13;;;;;;;;;;5040958;28;20049;-60
2023/12/08 11:04:22;;;;;;;31.80;14.25;;;;;;;;;;5040441;28;20115;-60
2023/12/08 11:07:00;;;;;;;38.40;15.02;;;;;;;;;;5040765;28;20751;-60
2023/12/08 11:09:28;;;;;;;32.10;14.33;;;;;;;;;;5039450;28;20056;-60
2023/12/08 11:11:56;;;;;;;32.17;14.45;;;;;;;;;;5041447;28;20300;-60
2023/12/08 11:14:32;;;;;;;34.78;15.73;;;;;;;;;;5042248;28;20049;-60
2023/12/08 11:17:01;;;;;;;35.63;14.65;;;;;;;;;;5041736;28;20055;-60
2023/12/08 11:19:29;;;;;;;33.95;14.05;;;;;;;;;;5041972;28;20045;-60
2023/12/08 11:21:55;;;;;;;39.53;15.65;;;;;;;;;;5042086;28;20045;-60
2023/12/08 11:24:21;;;;;;;43.05;14.63;;;;;;;;;;5041427;28;20094;-60
2023/12/08 11:26:52;;;;;;;41.60;15.27;;;;;;;;;;5041885;28;20079;-60
2023/12/08 11:29:42;;;;;;;39.95;15.98;;;;;;;;;;5041062;28;20551;-61
2023/12/08 11:32:15;;;;;;;36.17;15.65;;;;;;;;;;5041868;28;20118;-60
2023/12/08 11:34:56;;;;;;;36.35;13.65;;;;;;;;;;5040639;28;20576;-61
2023/12/08 11:37:22;;;;;;;38.40;16.27;;;;;;;;;;5040952;28;20052;-60
2023/12/08 11:39:49;;;;;;;39.35;15.27;;;;;;;;;;5040106;28;20052;-59
2023/12/08 11:42:18;;;;;;;41.80;14.20;;;;;;;;;;5041301;28;20584;-59
2023/12/08 11:44:45;;;;;;;40.00;15.88;;;;;;;;;;5042041;28;20037;-59
2023/12/08 11:47:16;;;;;;;44.88;15.52;;;;;;;;;;5040402;28;20053;-59
2023/12/08 11:49:46;;;;;;;35.38;15.40;;;;;;;;;;5041926;28;20506;-59
2023/12/08 11:52:28;;;;;;;40.63;15.52;;;;;;;;;;5041114;28;20051;-58
2023/12/08 11:54:58;;;;;;;41.20;15.52;;;;;;;;;;5038328;28;20052;-59
2023/12/08 11:57:24;;;;;;;37.90;14.73;;;;;;;;;;5035572;28;20045;-59
2023/12/08 11:59:50;;;;;;;38.97;14.85;;;;;;;;;;5040280;28;20060;-59
2023/12/08 12:02:16;;;;;;;60.28;22.92;;;;;;;;;;5040884;28;20105;-59
2023/12/08 12:04:43;;;;;;;36.60;16.08;;;;;;;;;;5041106;28;20067;-59
2023/12/08 12:07:09;;;;;;;35.60;14.30;;;;;;;;;;5039792;28;20044;-60
2023/12/08 12:09:35;;;;;;;38.05;16.70;;;;;;;;;;5038728;28;20861;-59
2023/12/08 12:12:09;;;;;;;40.63;17.33;;;;;;;;;;5035719;28;20044;-59
2023/12/08 12:14:36;;;;;;;41.90;17.02;;;;;;;;;;5037467;28;20029;-59
2023/12/08 12:17:03;;;;;;;37.38;15.05;;;;;;;;;;5038407;28;20049;-59
2023/12/08 12:19:30;;;;;;;36.47;15.57;;;;;;;;;;5038737;28;20406;-59
2023/12/08 12:21:56;;;;;;;44.38;15.18;;;;;;;;;;5038653;28;20520;-59
2023/12/08 12:24:22;;;;;;;53.53;16.25;;;;;;;;;;5037883;28;20561;-59
2023/12/08 12:26:49;;;;;;;37.13;15.18;;;;;;;;;;5040156;28;20051;-58
2023/12/08 12:29:15;;;;;;;34.23;14.80;;;;;;;;;;5038801;28;20110;-58
2023/12/08 12:31:41;;;;;;;47.50;15.38;;;;;;;;;;5038284;28;20287;-58
2023/12/08 12:34:07;;;;;;;44.05;15.00;;;;;;;;;;5039188;28;20110;-58
2023/12/08 12:36:33;;;;;;;42.67;16.70;;;;;;;;;;5040154;28;20047;-58
2023/12/08 12:38:59;;;;;;;37.65;15.05;;;;;;;;;;5039225;28;20065;-58
2023/12/08 12:41:26;;;;;;;39.85;15.52;;;;;;;;;;5040294;28;20052;-58
2023/12/08 12:43:58;;;;;;;37.80;15.35;;;;;;;;;;5039653;28;20990;-58
2023/12/08 12:46:25;;;;;;;51.15;20.30;;;;;;;;;;5039190;28;20084;-58
2023/12/08 12:48:52;;;;;;;43.08;15.80;;;;;;;;;;5038182;28;20563;-59
2023/12/08 12:51:37;;;;;;;43.45;15.38;;;;;;;;;;5039763;28;20049;-58
2023/12/08 12:54:04;;;;;;;49.70;15.45;;;;;;;;;;5038450;28;20560;-58
2023/12/08 12:56:31;;;;;;;39.42;16.00;;;;;;;;;;5039475;28;20044;-59
2023/12/08 12:59:03;;;;;;;40.90;16.27;;;;;;;;;;5038852;28;20533;-59
2023/12/08 13:01:30;;;;;;;55.28;16.38;;;;;;;;;;5040567;28;20049;-62
2023/12/08 13:03:57;;;;;;;39.88;16.27;;;;;;;;;;5040019;28;20612;-59
2023/12/08 13:06:29;;;;;;;43.38;16.50;;;;;;;;;;5039512;28;20454;-59
2023/12/08 13:08:56;;;;;;;49.72;17.05;;;;;;;;;;5039565;28;20049;-59
2023/12/08 13:11:22;;;;;;;43.10;16.65;;;;;;;;;;5039955;28;20060;-59
2023/12/08 13:13:48;;;;;;;37.45;15.73;;;;;;;;;;5040718;28;20567;-58
2023/12/08 13:16:14;;;;;;;47.40;17.15;;;;;;;;;;5039852;28;20134;-58
2023/12/08 13:18:46;;;;;;;38.97;15.95;;;;;;;;;;5041436;28;20048;-59
2023/12/08 13:21:13;;;;;;;66.47;18.27;;;;;;;;;;5044270;28;20087;-58
2023/12/08 13:23:39;;;;;;;43.47;16.90;;;;;;;;;;5043999;28;20045;-58
2023/12/08 13:26:06;;;;;;;43.90;17.40;;;;;;;;;;5044528;28;20055;-58
2023/12/08 13:28:32;;;;;;;35.67;15.90;;;;;;;;;;5042947;28;20509;-58
2023/12/08 13:30:58;;;;;;;40.45;15.45;;;;;;;;;;5043910;28;20819;-58
2023/12/08 13:33:25;;;;;;;41.53;17.80;;;;;;;;;;5043584;28;20442;-58
2023/12/08 13:35:54;;;;;;;40.97;17.20;;;;;;;;;;5040791;28;20110;-58
2023/12/08 13:38:21;;;;;;;72.38;18.02;;;;;;;;;;5035017;28;20490;-58
2023/12/08 13:40:48;;;;;;;42.88;16.27;;;;;;;;;;5041956;28;20052;-59
2023/12/08 13:43:14;;;;;;;50.00;17.73;;;;;;;;;;5042513;28;20719;-59
2023/12/08 13:45:40;;;;;;;49.70;17.15;;;;;;;;;;5042678;28;20029;-59
2023/12/08 13:48:06;;;;;;;47.40;16.92;;;;;;;;;;5042702;28;20055;-60
2023/12/08 13:50:32;;;;;;;45.67;17.52;;;;;;;;;;5034970;28;20124;-59
2023/12/08 13:52:58;;;;;;;51.85;18.58;;;;;;;;;;5041515;28;20037;-59
2023/12/08 13:55:24;;;;;;;44.05;18.67;;;;;;;;;;5040411;28;20049;-59
2023/12/08 13:57:50;;;;;;;47.00;16.98;;;;;;;;;;5042006;28;20041;-59
2023/12/08 14:00:17;;;;;;;45.28;17.30;;;;;;;;;;5041743;28;20135;-60
2023/12/08 14:02:43;;;;;;;49.80;17.40;;;;;;;;;;5042217;28;20056;-59
2023/12/08 14:05:10;;;;;;;56.20;18.33;;;;;;;;;;5042440;28;20037;-59
2023/12/08 14:07:36;;;;;;;60.05;18.25;;;;;;;;;;5040623;28;20045;-60
2023/12/08 14:10:03;;;;;;;52.35;18.80;;;;;;;;;;5041820;28;20085;-60
2023/12/08 14:12:30;;;;;;;49.00;17.95;;;;;;;;;;5043901;28;20135;-59
2023/12/08 14:14:56;;;;;;;61.20;18.30;;;;;;;;;;5043102;28;20051;-59
2023/12/08 14:17:22;;;;;;;57.72;17.42;;;;;;;;;;5043348;28;20037;-60
2023/12/08 14:19:47;;;;;;;45.17;19.20;;;;;;;;;;5043347;28;20053;-59
2023/12/08 14:22:13;;;;;;;54.38;18.35;;;;;;;;;;5041406;28;20053;-58
2023/12/08 14:24:40;;;;;;;65.53;17.83;;;;;;;;;;5042436;28;20040;-59
2023/12/08 14:27:05;;;;;;;65.88;19.38;;;;;;;;;;5042878;28;20540;-58
2023/12/08 14:29:31;;;;;;;61.15;18.80;;;;;;;;;;5042629;28;20049;-59